sensor_id;sensor_type;location;lat;lon;timestamp;pressure;altitude;pressure_sealevel;temperature;humidity
47753;BME280;2038;51.728;6.674;2023-03-13T00:01:26;99704.84;;;11.35;100.00
47753;BME280;2038;51.728;6.674;2023-03-13T00:03:52;99704.75;;;11.33;100.00
47753;BME280;2038;51.728;6.674;2023-03-13T00:06:21;99694.56;;;11.33;100.00
47753;BME280;2038;51.728;6.674;2023-03-13T00:08:49;99685.34;;;11.17;100.00
47753;BME280;2038;51.728;6.674;2023-03-13T00:11:15;99680.50;;;11.23;100.00
47753;BME280;2038;51.728;6.674;2023-03-13T00:13:42;99685.69;;;11.25;100.00
47753;BME280;2038;51.728;6.674;2023-03-13T00:16:15;99674.13;;;11.14;100.00
47753;BME280;2038;51.728;6.674;2023-03-13T00:18:46;99665.72;;;11.16;100.00
47753;BME280;2038;51.728;6.674;2023-03-13T00:21:14;99656.31;;;11.15;100.00
47753;BME280;2038;51.728;6.674;2023-03-13T00:23:43;99645.78;;;11.08;100.00
47753;BME280;2038;51.728;6.674;2023-03-13T00:26:11;99634.19;;;11.14;100.00
47753;BME280;2038;51.728;6.674;2023-03-13T00:28:40;99632.56;;;11.16;100.00
47753;BME280;2038;51.728;6.674;2023-03-13T00:31:10;99623.34;;;11.18;100.00
47753;BME280;2038;51.728;6.674;2023-03-13T00:33:40;99625.00;;;11.18;100.00
47753;BME280;2038;51.728;6.674;2023-03-13T00:36:10;99616.56;;;11.19;100.00
47753;BME280;2038;51.728;6.674;2023-03-13T00:38:38;99604.06;;;11.25;100.00
47753;BME280;2038;51.728;6.674;2023-03-13T00:41:13;99603.94;;;11.22;100.00
47753;BME280;2038;51.728;6.674;2023-03-13T00:43:43;99596.34;;;11.23;100.00
47753;BME280;2038;51.728;6.674;2023-03-13T00:46:11;99586.28;;;11.26;100.00
47753;BME280;2038;51.728;6.674;2023-03-13T00:48:38;99578.31;;;11.19;100.00
47753;BME280;2038;51.728;6.674;2023-03-13T00:51:06;99577.63;;;11.23;100.00
47753;BME280;2038;51.728;6.674;2023-03-13T00:53:33;99570.78;;;11.22;100.00
47753;BME280;2038;51.728;6.674;2023-03-13T00:56:02;99562.06;;;11.17;100.00
47753;BME280;2038;51.728;6.674;2023-03-13T00:58:35;99557.72;;;11.14;100.00
47753;BME280;2038;51.728;6.674;2023-03-13T01:01:15;99567.63;;;11.27;100.00
47753;BME280;2038;51.728;6.674;2023-03-13T01:03:47;99551.59;;;11.30;100.00
47753;BME280;2038;51.728;6.674;2023-03-13T01:06:20;99551.59;;;11.30;100.00
47753;BME280;2038;51.728;6.674;2023-03-13T01:08:49;99550.25;;;11.38;100.00
47753;BME280;2038;51.728;6.674;2023-03-13T01:11:18;99546.06;;;11.40;100.00
47753;BME280;2038;51.728;6.674;2023-03-13T01:13:58;99545.94;;;11.37;100.00
47753;BME280;2038;51.728;6.674;2023-03-13T01:16:28;99541.97;;;11.44;100.00
47753;BME280;2038;51.728;6.674;2023-03-13T01:19:00;99534.31;;;11.44;100.00
47753;BME280;2038;51.728;6.674;2023-03-13T01:21:28;99535.72;;;11.37;100.00
47753;BME280;2038;51.728;6.674;2023-03-13T01:23:55;99528.34;;;11.43;100.00
47753;BME280;2038;51.728;6.674;2023-03-13T01:26:22;99523.84;;;11.38;100.00
47753;BME280;2038;51.728;6.674;2023-03-13T01:28:49;99523.06;;;11.39;100.00
47753;BME280;2038;51.728;6.674;2023-03-13T01:31:18;99509.19;;;11.53;100.00
47753;BME280;2038;51.728;6.674;2023-03-13T01:33:48;99497.97;;;11.49;100.00
47753;BME280;2038;51.728;6.674;2023-03-13T01:36:16;99484.13;;;11.43;100.00
47753;BME280;2038;51.728;6.674;2023-03-13T01:38:46;99481.69;;;11.46;100.00
47753;BME280;2038;51.728;6.674;2023-03-13T01:41:14;99476.88;;;11.33;100.00
47753;BME280;2038;51.728;6.674;2023-03-13T01:43:42;99472.22;;;11.43;100.00
47753;BME280;2038;51.728;6.674;2023-03-13T01:46:23;99464.56;;;11.22;100.00
47753;BME280;2038;51.728;6.674;2023-03-13T01:49:08;99460.69;;;11.32;100.00
47753;BME280;2038;51.728;6.674;2023-03-13T01:51:48;99444.75;;;11.17;100.00
47753;BME280;2038;51.728;6.674;2023-03-13T01:54:29;99443.84;;;11.15;100.00
47753;BME280;2038;51.728;6.674;2023-03-13T01:57:03;99429.25;;;11.12;100.00
47753;BME280;2038;51.728;6.674;2023-03-13T01:59:39;99420.03;;;11.14;100.00
47753;BME280;2038;51.728;6.674;2023-03-13T02:02:12;99417.47;;;11.14;100.00
47753;BME280;2038;51.728;6.674;2023-03-13T02:04:46;99406.28;;;11.11;100.00
47753;BME280;2038;51.728;6.674;2023-03-13T02:07:22;99401.09;;;11.09;100.00
47753;BME280;2038;51.728;6.674;2023-03-13T02:10:00;99397.69;;;11.09;100.00
47753;BME280;2038;51.728;6.674;2023-03-13T02:12:35;99384.00;;;11.07;100.00
47753;BME280;2038;51.728;6.674;2023-03-13T02:15:29;99384.38;;;11.16;100.00
47753;BME280;2038;51.728;6.674;2023-03-13T02:17:56;99364.97;;;11.19;100.00
47753;BME280;2038;51.728;6.674;2023-03-13T02:20:23;99363.72;;;11.10;100.00
47753;BME280;2038;51.728;6.674;2023-03-13T02:22:59;99363.97;;;11.16;100.00
47753;BME280;2038;51.728;6.674;2023-03-13T02:25:50;99355.44;;;11.15;100.00
47753;BME280;2038;51.728;6.674;2023-03-13T02:28:28;99337.84;;;11.21;100.00
47753;BME280;2038;51.728;6.674;2023-03-13T02:30:59;99346.44;;;11.23;100.00
47753;BME280;2038;51.728;6.674;2023-03-13T02:33:30;99335.38;;;11.23;100.00
47753;BME280;2038;51.728;6.674;2023-03-13T02:36:02;99322.16;;;11.33;100.00
47753;BME280;2038;51.728;6.674;2023-03-13T02:38:32;99325.78;;;11.38;100.00
47753;BME280;2038;51.728;6.674;2023-03-13T02:41:04;99320.38;;;11.31;100.00
47753;BME280;2038;51.728;6.674;2023-03-13T02:43:36;99315.75;;;11.43;100.00
47753;BME280;2038;51.728;6.674;2023-03-13T02:46:15;99312.38;;;11.44;100.00
47753;BME280;2038;51.728;6.674;2023-03-13T02:48:49;99308.03;;;11.41;100.00
47753;BME280;2038;51.728;6.674;2023-03-13T02:51:28;99294.47;;;11.42;100.00
47753;BME280;2038;51.728;6.674;2023-03-13T02:53:58;99277.69;;;11.47;100.00
47753;BME280;2038;51.728;6.674;2023-03-13T02:56:28;99292.91;;;11.46;100.00
47753;BME280;2038;51.728;6.674;2023-03-13T02:58:58;99275.81;;;11.43;100.00
47753;BME280;2038;51.728;6.674;2023-03-13T03:01:24;99265.03;;;11.50;100.00
47753;BME280;2038;51.728;6.674;2023-03-13T03:03:50;99261.59;;;11.50;100.00
47753;BME280;2038;51.728;6.674;2023-03-13T03:06:17;99261.88;;;11.57;100.00
47753;BME280;2038;51.728;6.674;2023-03-13T03:08:43;99251.13;;;11.88;100.00
47753;BME280;2038;51.728;6.674;2023-03-13T03:11:10;99248.47;;;11.85;100.00
47753;BME280;2038;51.728;6.674;2023-03-13T03:13:37;99255.34;;;11.86;100.00
47753;BME280;2038;51.728;6.674;2023-03-13T03:16:11;99258.16;;;11.94;100.00
47753;BME280;2038;51.728;6.674;2023-03-13T03:18:40;99247.13;;;11.95;100.00
47753;BME280;2038;51.728;6.674;2023-03-13T03:21:07;99249.47;;;11.89;100.00
47753;BME280;2038;51.728;6.674;2023-03-13T03:23:33;99246.72;;;12.08;100.00
47753;BME280;2038;51.728;6.674;2023-03-13T03:26:01;99251.03;;;12.09;100.00
47753;BME280;2038;51.728;6.674;2023-03-13T03:28:28;99244.31;;;12.11;100.00
47753;BME280;2038;51.728;6.674;2023-03-13T03:30:54;99245.13;;;12.10;100.00
47753;BME280;2038;51.728;6.674;2023-03-13T03:33:22;99244.47;;;12.15;100.00
47753;BME280;2038;51.728;6.674;2023-03-13T03:35:49;99240.28;;;12.17;100.00
47753;BME280;2038;51.728;6.674;2023-03-13T03:38:16;99247.22;;;12.22;100.00
47753;BME280;2038;51.728;6.674;2023-03-13T03:40:42;99243.91;;;12.24;100.00
47753;BME280;2038;51.728;6.674;2023-03-13T03:43:09;99241.59;;;12.32;100.00
47753;BME280;2038;51.728;6.674;2023-03-13T03:45:35;99235.97;;;12.16;100.00
47753;BME280;2038;51.728;6.674;2023-03-13T03:48:01;99238.84;;;12.26;100.00
47753;BME280;2038;51.728;6.674;2023-03-13T03:50:27;99242.94;;;12.20;100.00
47753;BME280;2038;51.728;6.674;2023-03-13T03:52:53;99226.88;;;12.25;100.00
47753;BME280;2038;51.728;6.674;2023-03-13T03:55:20;99229.41;;;12.23;100.00
47753;BME280;2038;51.728;6.674;2023-03-13T03:57:46;99228.78;;;12.30;100.00
47753;BME280;2038;51.728;6.674;2023-03-13T04:00:12;99220.41;;;12.34;100.00
47753;BME280;2038;51.728;6.674;2023-03-13T04:02:41;99229.44;;;12.25;100.00
47753;BME280;2038;51.728;6.674;2023-03-13T04:05:07;99224.91;;;12.41;100.00
47753;BME280;2038;51.728;6.674;2023-03-13T04:07:33;99216.59;;;12.47;100.00
47753;BME280;2038;51.728;6.674;2023-03-13T04:09:59;99215.88;;;12.51;100.00
47753;BME280;2038;51.728;6.674;2023-03-13T04:12:26;99213.31;;;12.51;100.00
47753;BME280;2038;51.728;6.674;2023-03-13T04:14:52;99219.34;;;12.53;100.00
47753;BME280;2038;51.728;6.674;2023-03-13T04:17:18;99211.09;;;12.61;100.00
47753;BME280;2038;51.728;6.674;2023-03-13T04:19:44;99203.16;;;12.79;100.00
47753;BME280;2038;51.728;6.674;2023-03-13T04:22:12;99209.91;;;12.77;100.00
47753;BME280;2038;51.728;6.674;2023-03-13T04:24:38;99205.16;;;12.88;100.00
47753;BME280;2038;51.728;6.674;2023-03-13T04:27:04;99208.66;;;12.91;100.00
47753;BME280;2038;51.728;6.674;2023-03-13T04:29:32;99207.00;;;12.93;100.00
47753;BME280;2038;51.728;6.674;2023-03-13T04:31:58;99198.19;;;12.84;100.00
47753;BME280;2038;51.728;6.674;2023-03-13T04:34:25;99206.69;;;12.83;100.00
47753;BME280;2038;51.728;6.674;2023-03-13T04:36:51;99193.13;;;12.85;100.00
47753;BME280;2038;51.728;6.674;2023-03-13T04:39:17;99194.81;;;12.85;100.00
47753;BME280;2038;51.728;6.674;2023-03-13T04:41:43;99195.03;;;12.92;100.00
47753;BME280;2038;51.728;6.674;2023-03-13T04:44:10;99193.31;;;12.91;100.00
47753;BME280;2038;51.728;6.674;2023-03-13T04:46:36;99186.63;;;12.96;100.00
47753;BME280;2038;51.728;6.674;2023-03-13T04:49:03;99196.19;;;13.02;100.00
47753;BME280;2038;51.728;6.674;2023-03-13T04:51:29;99196.19;;;13.02;100.00
47753;BME280;2038;51.728;6.674;2023-03-13T04:53:55;99178.28;;;13.02;100.00
47753;BME280;2038;51.728;6.674;2023-03-13T04:56:24;99190.16;;;13.00;100.00
47753;BME280;2038;51.728;6.674;2023-03-13T04:58:51;99180.56;;;12.93;100.00
47753;BME280;2038;51.728;6.674;2023-03-13T05:01:18;99186.47;;;13.17;100.00
47753;BME280;2038;51.728;6.674;2023-03-13T05:03:45;99183.38;;;13.29;100.00
47753;BME280;2038;51.728;6.674;2023-03-13T05:06:11;99179.00;;;13.25;100.00
47753;BME280;2038;51.728;6.674;2023-03-13T05:08:38;99155.09;;;13.24;100.00
47753;BME280;2038;51.728;6.674;2023-03-13T05:11:04;99174.84;;;13.28;100.00
47753;BME280;2038;51.728;6.674;2023-03-13T05:13:31;99159.91;;;13.13;100.00
47753;BME280;2038;51.728;6.674;2023-03-13T05:15:57;99175.97;;;13.09;100.00
47753;BME280;2038;51.728;6.674;2023-03-13T05:18:23;99173.84;;;13.23;100.00
47753;BME280;2038;51.728;6.674;2023-03-13T05:20:50;99159.25;;;13.19;100.00
47753;BME280;2038;51.728;6.674;2023-03-13T05:23:16;99171.09;;;13.16;100.00
47753;BME280;2038;51.728;6.674;2023-03-13T05:25:43;99166.41;;;13.04;100.00
47753;BME280;2038;51.728;6.674;2023-03-13T05:28:09;99152.06;;;13.07;100.00
47753;BME280;2038;51.728;6.674;2023-03-13T05:30:35;99162.03;;;13.27;100.00
47753;BME280;2038;51.728;6.674;2023-03-13T05:33:01;99158.41;;;13.20;100.00
47753;BME280;2038;51.728;6.674;2023-03-13T05:35:28;99153.34;;;13.22;100.00
47753;BME280;2038;51.728;6.674;2023-03-13T05:37:54;99151.72;;;13.25;100.00
47753;BME280;2038;51.728;6.674;2023-03-13T05:40:20;99151.28;;;13.38;100.00
47753;BME280;2038;51.728;6.674;2023-03-13T05:42:47;99138.28;;;13.32;100.00
47753;BME280;2038;51.728;6.674;2023-03-13T05:45:13;99146.97;;;13.37;100.00
47753;BME280;2038;51.728;6.674;2023-03-13T05:47:40;99143.50;;;13.35;100.00
47753;BME280;2038;51.728;6.674;2023-03-13T05:50:06;99112.69;;;13.31;100.00
47753;BME280;2038;51.728;6.674;2023-03-13T05:52:33;99122.84;;;13.28;100.00
47753;BME280;2038;51.728;6.674;2023-03-13T05:55:00;99135.91;;;13.38;100.00
47753;BME280;2038;51.728;6.674;2023-03-13T05:57:26;99130.66;;;13.34;100.00
47753;BME280;2038;51.728;6.674;2023-03-13T05:59:52;99142.06;;;13.45;100.00
47753;BME280;2038;51.728;6.674;2023-03-13T06:02:19;99127.31;;;13.36;100.00
47753;BME280;2038;51.728;6.674;2023-03-13T06:04:46;99128.38;;;13.43;100.00
47753;BME280;2038;51.728;6.674;2023-03-13T06:07:12;99117.19;;;13.39;100.00
47753;BME280;2038;51.728;6.674;2023-03-13T06:09:38;99125.63;;;13.37;100.00
47753;BME280;2038;51.728;6.674;2023-03-13T06:12:07;99118.28;;;13.47;100.00
47753;BME280;2038;51.728;6.674;2023-03-13T06:14:34;99118.41;;;13.53;100.00
47753;BME280;2038;51.728;6.674;2023-03-13T06:17:00;99131.50;;;13.64;100.00
47753;BME280;2038;51.728;6.674;2023-03-13T06:19:26;99133.41;;;13.71;100.00
47753;BME280;2038;51.728;6.674;2023-03-13T06:21:52;99140.44;;;13.78;100.00
47753;BME280;2038;51.728;6.674;2023-03-13T06:24:19;99127.56;;;13.77;100.00
47753;BME280;2038;51.728;6.674;2023-03-13T06:26:48;99142.19;;;13.79;100.00
47753;BME280;2038;51.728;6.674;2023-03-13T06:29:15;99121.50;;;13.73;100.00
47753;BME280;2038;51.728;6.674;2023-03-13T06:31:42;99132.69;;;13.77;100.00
47753;BME280;2038;51.728;6.674;2023-03-13T06:34:12;99121.63;;;13.78;100.00
47753;BME280;2038;51.728;6.674;2023-03-13T06:36:39;99124.41;;;13.85;100.00
47753;BME280;2038;51.728;6.674;2023-03-13T06:39:05;99136.44;;;13.89;100.00
47753;BME280;2038;51.728;6.674;2023-03-13T06:41:32;99128.56;;;13.82;100.00
47753;BME280;2038;51.728;6.674;2023-03-13T06:43:58;99144.13;;;13.89;100.00
47753;BME280;2038;51.728;6.674;2023-03-13T06:46:24;99138.00;;;13.83;100.00
47753;BME280;2038;51.728;6.674;2023-03-13T06:48:51;99132.00;;;13.82;100.00
47753;BME280;2038;51.728;6.674;2023-03-13T06:51:19;99139.00;;;13.89;100.00
47753;BME280;2038;51.728;6.674;2023-03-13T06:53:47;99149.25;;;13.89;100.00
47753;BME280;2038;51.728;6.674;2023-03-13T06:56:14;99139.31;;;14.00;100.00
47753;BME280;2038;51.728;6.674;2023-03-13T06:58:40;99137.69;;;14.03;100.00
47753;BME280;2038;51.728;6.674;2023-03-13T07:01:12;99141.94;;;14.03;100.00
47753;BME280;2038;51.728;6.674;2023-03-13T07:03:39;99133.28;;;13.98;100.00
47753;BME280;2038;51.728;6.674;2023-03-13T07:06:07;99120.50;;;13.99;100.00
47753;BME280;2038;51.728;6.674;2023-03-13T07:08:34;99110.16;;;13.96;100.00
47753;BME280;2038;51.728;6.674;2023-03-13T07:11:04;99109.66;;;14.10;100.00
47753;BME280;2038;51.728;6.674;2023-03-13T07:13:34;99097.59;;;14.04;100.00
47753;BME280;2038;51.728;6.674;2023-03-13T07:16:02;99102.84;;;14.10;100.00
47753;BME280;2038;51.728;6.674;2023-03-13T07:18:31;99096.72;;;14.03;100.00
47753;BME280;2038;51.728;6.674;2023-03-13T07:21:00;99113.88;;;14.07;100.00
47753;BME280;2038;51.728;6.674;2023-03-13T07:23:30;99102.03;;;14.13;100.00
47753;BME280;2038;51.728;6.674;2023-03-13T07:26:20;99105.53;;;14.15;100.00
47753;BME280;2038;51.728;6.674;2023-03-13T07:28:45;99112.41;;;14.17;100.00
47753;BME280;2038;51.728;6.674;2023-03-13T07:31:17;99110.59;;;14.13;100.00
47753;BME280;2038;51.728;6.674;2023-03-13T07:33:45;99101.41;;;14.21;100.00
47753;BME280;2038;51.728;6.674;2023-03-13T07:36:14;99093.59;;;14.17;100.00
47753;BME280;2038;51.728;6.674;2023-03-13T07:38:41;99108.22;;;14.21;100.00
47753;BME280;2038;51.728;6.674;2023-03-13T07:41:11;99105.81;;;14.27;100.00
47753;BME280;2038;51.728;6.674;2023-03-13T07:43:38;99108.25;;;14.22;100.00
47753;BME280;2038;51.728;6.674;2023-03-13T07:46:06;99095.34;;;14.18;100.00
47753;BME280;2038;51.728;6.674;2023-03-13T07:48:38;99105.78;;;14.25;100.00
47753;BME280;2038;51.728;6.674;2023-03-13T07:51:09;99103.38;;;14.33;100.00
47753;BME280;2038;51.728;6.674;2023-03-13T07:53:37;99100.81;;;14.31;100.00
47753;BME280;2038;51.728;6.674;2023-03-13T07:56:07;99109.47;;;14.35;100.00
47753;BME280;2038;51.728;6.674;2023-03-13T07:58:38;99104.47;;;14.41;100.00
47753;BME280;2038;51.728;6.674;2023-03-13T08:01:31;99109.69;;;14.44;100.00
47753;BME280;2038;51.728;6.674;2023-03-13T08:03:58;99097.81;;;14.47;100.00
47753;BME280;2038;51.728;6.674;2023-03-13T08:06:30;99104.34;;;14.36;100.00
47753;BME280;2038;51.728;6.674;2023-03-13T08:08:58;99098.59;;;14.45;100.00
47753;BME280;2038;51.728;6.674;2023-03-13T08:11:25;99104.47;;;14.41;100.00
47753;BME280;2038;51.728;6.674;2023-03-13T08:13:53;99118.34;;;14.49;100.00
47753;BME280;2038;51.728;6.674;2023-03-13T08:16:23;99103.81;;;14.48;100.00
47753;BME280;2038;51.728;6.674;2023-03-13T08:18:54;99111.63;;;14.54;100.00
47753;BME280;2038;51.728;6.674;2023-03-13T08:21:33;99110.81;;;14.55;100.00
47753;BME280;2038;51.728;6.674;2023-03-13T08:24:03;99120.13;;;14.51;100.00
47753;BME280;2038;51.728;6.674;2023-03-13T08:26:33;99105.69;;;14.55;100.00
47753;BME280;2038;51.728;6.674;2023-03-13T08:29:04;99105.69;;;14.55;100.00
47753;BME280;2038;51.728;6.674;2023-03-13T08:31:37;99120.50;;;14.68;100.00
47753;BME280;2038;51.728;6.674;2023-03-13T08:34:07;99111.84;;;14.63;100.00
47753;BME280;2038;51.728;6.674;2023-03-13T08:36:35;99098.16;;;14.63;100.00
47753;BME280;2038;51.728;6.674;2023-03-13T08:39:11;99120.31;;;14.61;100.00
47753;BME280;2038;51.728;6.674;2023-03-13T08:41:39;99122.06;;;14.62;100.00
47753;BME280;2038;51.728;6.674;2023-03-13T08:44:07;99097.94;;;14.53;100.00
47753;BME280;2038;51.728;6.674;2023-03-13T08:46:36;99110.03;;;14.59;100.00
47753;BME280;2038;51.728;6.674;2023-03-13T08:49:04;99109.28;;;14.63;100.00
47753;BME280;2038;51.728;6.674;2023-03-13T08:51:31;99113.66;;;14.69;100.00
47753;BME280;2038;51.728;6.674;2023-03-13T08:53:58;99105.19;;;14.71;100.00
47753;BME280;2038;51.728;6.674;2023-03-13T08:56:26;99090.78;;;14.78;100.00
47753;BME280;2038;51.728;6.674;2023-03-13T08:58:57;99095.16;;;14.80;100.00
47753;BME280;2038;51.728;6.674;2023-03-13T09:01:27;99090.13;;;14.86;100.00
47753;BME280;2038;51.728;6.674;2023-03-13T09:03:56;99095.56;;;15.00;100.00
47753;BME280;2038;51.728;6.674;2023-03-13T09:06:22;99084.59;;;15.07;100.00
47753;BME280;2038;51.728;6.674;2023-03-13T09:08:49;99076.09;;;15.10;100.00
47753;BME280;2038;51.728;6.674;2023-03-13T09:11:19;99078.69;;;15.11;100.00
47753;BME280;2038;51.728;6.674;2023-03-13T09:13:48;99076.31;;;15.22;100.00
47753;BME280;2038;51.728;6.674;2023-03-13T09:16:20;99084.03;;;15.20;100.00
47753;BME280;2038;51.728;6.674;2023-03-13T09:18:49;99067.06;;;15.28;100.00
47753;BME280;2038;51.728;6.674;2023-03-13T09:21:18;99072.34;;;15.36;100.00
47753;BME280;2038;51.728;6.674;2023-03-13T09:23:47;99069.94;;;15.43;100.00
47753;BME280;2038;51.728;6.674;2023-03-13T09:26:14;99071.06;;;15.58;100.00
47753;BME280;2038;51.728;6.674;2023-03-13T09:28:42;99056.31;;;15.48;100.00
47753;BME280;2038;51.728;6.674;2023-03-13T09:31:10;99062.50;;;15.57;100.00
47753;BME280;2038;51.728;6.674;2023-03-13T09:33:39;99066.50;;;15.43;100.00
47753;BME280;2038;51.728;6.674;2023-03-13T09:36:07;99070.75;;;15.42;100.00
47753;BME280;2038;51.728;6.674;2023-03-13T09:38:35;99075.94;;;15.45;100.00
47753;BME280;2038;51.728;6.674;2023-03-13T09:47:00;99035.72;;;15.44;100.00
47753;BME280;2038;51.728;6.674;2023-03-13T09:49:44;99036.75;;;15.54;100.00
47753;BME280;2038;51.728;6.674;2023-03-13T09:52:30;99035.31;;;15.68;100.00
47753;BME280;2038;51.728;6.674;2023-03-13T09:55:23;99040.47;;;15.70;100.00
47753;BME280;2038;51.728;6.674;2023-03-13T09:58:03;99038.91;;;15.78;100.00
47753;BME280;2038;51.728;6.674;2023-03-13T10:00:37;99032.06;;;15.78;100.00
47753;BME280;2038;51.728;6.674;2023-03-13T10:03:16;99026.28;;;15.91;100.00
47753;BME280;2038;51.728;6.674;2023-03-13T10:06:17;99013.59;;;16.02;100.00
47753;BME280;2038;51.728;6.674;2023-03-13T10:08:44;99015.31;;;16.00;100.00
47753;BME280;2038;51.728;6.674;2023-03-13T10:14:10;99013.41;;;15.90;100.00
47753;BME280;2038;51.728;6.674;2023-03-13T10:16:58;99018.59;;;15.91;100.00
47753;BME280;2038;51.728;6.674;2023-03-13T10:19:35;99002.31;;;15.91;100.00
47753;BME280;2038;51.728;6.674;2023-03-13T10:22:17;98991.94;;;15.86;100.00
47753;BME280;2038;51.728;6.674;2023-03-13T10:24:54;98988.91;;;16.09;100.00
47753;BME280;2038;51.728;6.674;2023-03-13T10:27:24;99005.34;;;16.21;100.00
47753;BME280;2038;51.728;6.674;2023-03-13T10:29:51;98954.00;;;16.26;100.00
47753;BME280;2038;51.728;6.674;2023-03-13T10:32:18;98994.13;;;16.16;100.00
47753;BME280;2038;51.728;6.674;2023-03-13T10:35:00;98985.75;;;16.29;100.00
47753;BME280;2038;51.728;6.674;2023-03-13T10:37:39;98992.00;;;16.47;100.00
47753;BME280;2038;51.728;6.674;2023-03-13T10:40:18;98986.91;;;16.51;100.00
47753;BME280;2038;51.728;6.674;2023-03-13T10:42:51;98973.34;;;16.60;100.00
47753;BME280;2038;51.728;6.674;2023-03-13T10:45:24;98976.09;;;16.75;100.00
47753;BME280;2038;51.728;6.674;2023-03-13T10:47:55;98932.63;;;16.96;100.00
47753;BME280;2038;51.728;6.674;2023-03-13T10:50:30;98956.22;;;16.62;100.00
47753;BME280;2038;51.728;6.674;2023-03-13T10:53:19;98959.91;;;16.83;100.00
47753;BME280;2038;51.728;6.674;2023-03-13T10:56:24;98927.44;;;16.95;98.58
47753;BME280;2038;51.728;6.674;2023-03-13T10:58:55;98954.22;;;17.10;99.20
47753;BME280;2038;51.728;6.674;2023-03-13T11:01:27;98937.09;;;17.12;99.16
47753;BME280;2038;51.728;6.674;2023-03-13T11:03:57;98947.94;;;16.87;98.66
47753;BME280;2038;51.728;6.674;2023-03-13T11:06:30;98943.66;;;16.84;99.03
47753;BME280;2038;51.728;6.674;2023-03-13T11:09:14;98951.44;;;16.94;99.12
47753;BME280;2038;51.728;6.674;2023-03-13T11:11:53;98946.41;;;17.03;99.57
47753;BME280;2038;51.728;6.674;2023-03-13T11:14:23;98921.34;;;16.87;98.84
47753;BME280;2038;51.728;6.674;2023-03-13T11:16:54;98942.03;;;16.96;98.25
47753;BME280;2038;51.728;6.674;2023-03-13T11:25:21;98931.69;;;16.91;99.97
47753;BME280;2038;51.728;6.674;2023-03-13T11:28:05;98918.88;;;16.96;98.73
47753;BME280;2038;51.728;6.674;2023-03-13T11:36:47;98910.25;;;16.91;98.34
47753;BME280;2038;51.728;6.674;2023-03-13T11:39:42;98884.50;;;16.88;97.76
47753;BME280;2038;51.728;6.674;2023-03-13T11:49:00;98881.19;;;16.99;95.82
47753;BME280;2038;51.728;6.674;2023-03-13T11:51:47;98886.47;;;17.13;97.21
47753;BME280;2038;51.728;6.674;2023-03-13T11:54:47;98869.97;;;16.93;95.27
47753;BME280;2038;51.728;6.674;2023-03-13T12:00:36;98888.19;;;17.15;96.19
47753;BME280;2038;51.728;6.674;2023-03-13T12:03:38;98865.09;;;17.23;96.16
47753;BME280;2038;51.728;6.674;2023-03-13T12:06:33;98863.25;;;17.10;95.02
47753;BME280;2038;51.728;6.674;2023-03-13T12:11:57;98848.50;;;16.94;96.03
47753;BME280;2038;51.728;6.674;2023-03-13T12:14:38;98866.72;;;17.15;96.52
47753;BME280;2038;51.728;6.674;2023-03-13T12:20:25;98843.53;;;17.13;95.63
47753;BME280;2038;51.728;6.674;2023-03-13T12:25:54;98837.75;;;17.39;94.93
47753;BME280;2038;51.728;6.674;2023-03-13T12:29:02;98835.16;;;17.36;93.76
47753;BME280;2038;51.728;6.674;2023-03-13T12:31:45;98833.53;;;17.50;94.05
47753;BME280;2038;51.728;6.674;2023-03-13T12:34:32;98808.56;;;17.37;92.99
47753;BME280;2038;51.728;6.674;2023-03-13T12:37:29;98805.94;;;17.30;92.83
47753;BME280;2038;51.728;6.674;2023-03-13T12:40:20;98818.88;;;17.37;93.47
47753;BME280;2038;51.728;6.674;2023-03-13T12:47:25;98803.41;;;17.35;93.32
47753;BME280;2038;51.728;6.674;2023-03-13T12:52:41;98800.78;;;17.29;92.71
47753;BME280;2038;51.728;6.674;2023-03-13T12:56:00;98797.34;;;17.28;91.74
47753;BME280;2038;51.728;6.674;2023-03-13T12:59:03;98805.19;;;17.44;91.68
47753;BME280;2038;51.728;6.674;2023-03-13T13:01:39;98779.44;;;17.50;90.23
47753;BME280;2038;51.728;6.674;2023-03-13T13:04:27;98793.25;;;17.56;89.66
47753;BME280;2038;51.728;6.674;2023-03-13T13:12:42;98779.41;;;17.41;88.05
47753;BME280;2038;51.728;6.674;2023-03-13T13:15:29;98795.00;;;17.59;89.77
47753;BME280;2038;51.728;6.674;2023-03-13T13:18:26;98787.13;;;17.41;88.13
47753;BME280;2038;51.728;6.674;2023-03-13T13:21:18;98788.00;;;17.44;88.75
47753;BME280;2038;51.728;6.674;2023-03-13T13:23:48;98778.53;;;17.40;89.20
47753;BME280;2038;51.728;6.674;2023-03-13T13:36:56;98741.03;;;17.91;84.11
47753;BME280;2038;51.728;6.674;2023-03-13T13:39:39;98758.19;;;17.80;82.13
47753;BME280;2038;51.728;6.674;2023-03-13T13:44:57;98763.41;;;18.02;83.35
47753;BME280;2038;51.728;6.674;2023-03-13T13:47:27;98760.78;;;17.81;83.90
47753;BME280;2038;51.728;6.674;2023-03-13T13:49:57;98763.25;;;17.66;86.09
47753;BME280;2038;51.728;6.674;2023-03-13T13:52:51;98765.84;;;17.64;86.36
47753;BME280;2038;51.728;6.674;2023-03-13T13:55:32;98756.44;;;17.75;85.97
47753;BME280;2038;51.728;6.674;2023-03-13T14:01:00;98726.25;;;17.55;83.88
47753;BME280;2038;51.728;6.674;2023-03-13T14:03:38;98724.63;;;17.64;83.85
47753;BME280;2038;51.728;6.674;2023-03-13T14:06:18;98721.16;;;17.62;84.81
47753;BME280;2038;51.728;6.674;2023-03-13T14:08:50;98741.78;;;17.64;84.58
47753;BME280;2038;51.728;6.674;2023-03-13T14:11:32;98740.06;;;17.63;84.66
47753;BME280;2038;51.728;6.674;2023-03-13T14:14:20;98698.84;;;17.61;83.48
47753;BME280;2038;51.728;6.674;2023-03-13T14:16:52;98705.72;;;17.59;84.22
47753;BME280;2038;51.728;6.674;2023-03-13T14:19:32;98719.44;;;17.61;83.59
47753;BME280;2038;51.728;6.674;2023-03-13T14:22:07;98708.28;;;17.59;84.29
47753;BME280;2038;51.728;6.674;2023-03-13T14:24:35;98720.34;;;17.65;84.42
47753;BME280;2038;51.728;6.674;2023-03-13T14:27:15;98714.28;;;17.61;84.88
47753;BME280;2038;51.728;6.674;2023-03-13T14:30:04;98700.63;;;17.77;86.49
47753;BME280;2038;51.728;6.674;2023-03-13T14:32:34;98696.34;;;17.76;86.25
47753;BME280;2038;51.728;6.674;2023-03-13T14:35:00;98692.94;;;17.87;83.92
47753;BME280;2038;51.728;6.674;2023-03-13T14:37:45;98678.31;;;17.87;85.03